Time;durP1;ratioP1;P1;durP2;ratioP2;P2;SDS_P1;SDS_P2;PMS_P1;PMS_P2;Temp;Humidity;BMP_temperature;BMP_pressure;BME280_temperature;BME280_humidity;BME280_pressure;Samples;Min_cycle;Max_cycle;Signal;HPM_P1;HPM_P2
2023/07/07 00:00:24;;;;;;;4.63;1.73;;;;;;;;;;5050119;28;20055;-68
2023/07/07 00:02:50;;;;;;;10.43;1.67;;;;;;;;;;5053408;28;20028;-69
2023/07/07 00:05:15;;;;;;;4.25;1.90;;;;;;;;;;5053358;28;20435;-68
2023/07/07 00:07:40;;;;;;;3.50;1.40;;;;;;;;;;5053063;28;20029;-68
2023/07/07 00:10:06;;;;;;;9.35;1.63;;;;;;;;;;5053058;28;20453;-68
2023/07/07 00:12:32;;;;;;;7.68;1.60;;;;;;;;;;5048311;28;20049;-69
2023/07/07 00:14:57;;;;;;;6.97;1.90;;;;;;;;;;5052673;28;20400;-68
2023/07/07 00:17:24;;;;;;;3.88;1.70;;;;;;;;;;5053379;28;20385;-68
2023/07/07 00:19:50;;;;;;;3.63;1.65;;;;;;;;;;5052870;28;20049;-69
2023/07/07 00:22:15;;;;;;;3.75;1.60;;;;;;;;;;5053273;28;20029;-69
2023/07/07 00:24:40;;;;;;;5.15;1.92;;;;;;;;;;5052946;28;20045;-68
2023/07/07 00:27:06;;;;;;;3.85;1.48;;;;;;;;;;5053287;28;20055;-69
2023/07/07 00:29:31;;;;;;;4.07;1.75;;;;;;;;;;5052954;28;20040;-68
2023/07/07 00:31:58;;;;;;;3.17;1.48;;;;;;;;;;5051629;28;20116;-68
2023/07/07 00:34:25;;;;;;;7.82;2.20;;;;;;;;;;5045891;28;20508;-69
2023/07/07 00:36:51;;;;;;;8.73;2.15;;;;;;;;;;5044503;28;20025;-68
2023/07/07 00:39:16;;;;;;;4.78;1.90;;;;;;;;;;5052745;28;20025;-68
2023/07/07 00:41:41;;;;;;;3.25;1.60;;;;;;;;;;5052949;28;20396;-68
2023/07/07 00:44:09;;;;;;;7.80;2.03;;;;;;;;;;5051388;28;20040;-69
2023/07/07 00:46:35;;;;;;;5.45;1.60;;;;;;;;;;5053078;28;20029;-68
2023/07/07 00:49:03;;;;;;;4.22;1.90;;;;;;;;;;5052826;28;20033;-68
2023/07/07 00:51:38;;;;;;;7.07;1.98;;;;;;;;;;5051806;28;20396;-69
2023/07/07 00:54:06;;;;;;;4.72;1.90;;;;;;;;;;5051314;28;20127;-68
2023/07/07 00:56:38;;;;;;;7.78;2.10;;;;;;;;;;5051740;28;20044;-68
2023/07/07 00:59:08;;;;;;;5.35;2.00;;;;;;;;;;5052201;28;20041;-69
2023/07/07 01:01:34;;;;;;;8.40;2.20;;;;;;;;;;5049414;28;20091;-68
2023/07/07 01:04:09;;;;;;;4.55;1.80;;;;;;;;;;5056538;28;20036;-68
2023/07/07 01:06:38;;;;;;;6.13;2.10;;;;;;;;;;5055772;28;20079;-68
2023/07/07 01:09:08;;;;;;;11.07;1.90;;;;;;;;;;5050709;28;20086;-68
2023/07/07 01:11:36;;;;;;;5.70;2.08;;;;;;;;;;5056495;28;20088;-68
2023/07/07 01:14:04;;;;;;;6.32;1.88;;;;;;;;;;5056184;28;20037;-68
2023/07/07 01:16:42;;;;;;;8.43;2.20;;;;;;;;;;5056872;28;20029;-68
2023/07/07 01:19:22;;;;;;;4.95;1.58;;;;;;;;;;5055568;28;20124;-68
2023/07/07 01:22:12;;;;;;;7.80;2.20;;;;;;;;;;5056661;28;20032;-68
2023/07/07 01:24:47;;;;;;;6.95;1.92;;;;;;;;;;5056097;28;20045;-68
2023/07/07 01:27:22;;;;;;;5.80;2.17;;;;;;;;;;5056285;28;20491;-68
2023/07/07 01:30:12;;;;;;;4.90;1.77;;;;;;;;;;5054170;28;20400;-69
2023/07/07 01:32:38;;;;;;;5.47;2.05;;;;;;;;;;5054301;28;20100;-69
2023/07/07 01:35:10;;;;;;;3.70;1.90;;;;;;;;;;5054732;28;20464;-69
2023/07/07 01:37:36;;;;;;;6.60;2.17;;;;;;;;;;5054622;28;20029;-68
2023/07/07 01:40:03;;;;;;;5.90;2.25;;;;;;;;;;5056086;28;20115;-68
2023/07/07 01:42:43;;;;;;;9.88;2.20;;;;;;;;;;5043537;28;20041;-68
2023/07/07 01:45:14;;;;;;;7.05;2.20;;;;;;;;;;5050450;28;20477;-68
2023/07/07 01:47:44;;;;;;;5.57;2.25;;;;;;;;;;5054390;28;20087;-69
2023/07/07 01:50:15;;;;;;;3.78;1.98;;;;;;;;;;5052270;28;20025;-68
2023/07/07 01:52:48;;;;;;;5.15;2.00;;;;;;;;;;5054498;28;20041;-68
2023/07/07 01:55:18;;;;;;;;;;;;;;;;;;5054975;28;20055;-69
2023/07/07 01:57:46;;;;;;;5.38;2.35;;;;;;;;;;5053914;28;19939;-69
2023/07/07 02:00:13;;;;;;;5.40;2.10;;;;;;;;;;5050061;28;20045;-68
2023/07/07 02:02:38;;;;;;;5.00;2.22;;;;;;;;;;5049136;28;20104;-69
2023/07/07 02:05:04;;;;;;;7.22;2.30;;;;;;;;;;5053809;28;20544;-68
2023/07/07 02:07:29;;;;;;;8.95;2.13;;;;;;;;;;5053978;28;20079;-68
2023/07/07 02:09:55;;;;;;;5.43;2.40;;;;;;;;;;5055190;28;20385;-68
2023/07/07 02:12:20;;;;;;;8.43;2.15;;;;;;;;;;5055094;28;20473;-68
2023/07/07 02:14:47;;;;;;;8.80;2.20;;;;;;;;;;5055348;28;20037;-68
2023/07/07 02:17:15;;;;;;;7.88;2.58;;;;;;;;;;5055371;28;20028;-68
2023/07/07 02:19:40;;;;;;;9.18;2.25;;;;;;;;;;5055219;28;20045;-68
2023/07/07 02:22:06;;;;;;;8.68;2.55;;;;;;;;;;5055729;28;20430;-68
2023/07/07 02:24:31;;;;;;;5.40;2.50;;;;;;;;;;5053673;28;20048;-68
2023/07/07 02:26:56;;;;;;;5.50;2.22;;;;;;;;;;5055416;28;20033;-68
2023/07/07 02:29:22;;;;;;;5.10;2.40;;;;;;;;;;5050796;28;20044;-68
2023/07/07 02:31:47;;;;;;;8.68;2.70;;;;;;;;;;5055441;28;20051;-69
2023/07/07 02:34:12;;;;;;;7.90;2.30;;;;;;;;;;5045341;28;20065;-68
2023/07/07 02:36:38;;;;;;;5.82;2.28;;;;;;;;;;5055311;28;20047;-68
2023/07/07 02:39:04;;;;;;;10.98;2.28;;;;;;;;;;5054567;28;20029;-68
2023/07/07 02:41:29;;;;;;;3.90;1.98;;;;;;;;;;5053930;28;20116;-68
2023/07/07 02:43:54;;;;;;;4.15;2.10;;;;;;;;;;5053279;28;20079;-69
2023/07/07 02:46:20;;;;;;;5.80;2.38;;;;;;;;;;5055231;28;20044;-68
2023/07/07 02:48:45;;;;;;;3.42;2.00;;;;;;;;;;5053472;28;20044;-68
2023/07/07 02:51:10;;;;;;;9.77;2.15;;;;;;;;;;5053414;28;20526;-68
2023/07/07 02:53:36;;;;;;;4.25;2.38;;;;;;;;;;5052921;28;20033;-68
2023/07/07 02:56:02;;;;;;;7.45;2.40;;;;;;;;;;5049934;28;20037;-68
2023/07/07 02:58:28;;;;;;;7.45;2.28;;;;;;;;;;5054421;28;20036;-68
2023/07/07 03:00:53;;;;;;;5.10;2.30;;;;;;;;;;5049162;28;20044;-68
2023/07/07 03:03:19;;;;;;;5.68;2.35;;;;;;;;;;5054251;28;20378;-68
2023/07/07 03:05:45;;;;;;;10.32;2.42;;;;;;;;;;5050021;28;20120;-68
2023/07/07 03:08:10;;;;;;;6.13;2.50;;;;;;;;;;5051788;28;20052;-68
2023/07/07 03:10:37;;;;;;;6.28;2.92;;;;;;;;;;5042204;28;20054;-68
2023/07/07 03:13:03;;;;;;;6.32;2.10;;;;;;;;;;5052140;28;20033;-68
2023/07/07 03:15:38;;;;;;;4.95;2.20;;;;;;;;;;5052713;28;20111;-68
2023/07/07 03:18:08;;;;;;;6.43;2.35;;;;;;;;;;5051759;28;20040;-68
2023/07/07 03:20:35;;;;;;;7.78;2.40;;;;;;;;;;5047819;28;20033;-68
2023/07/07 03:23:00;;;;;;;5.15;2.42;;;;;;;;;;5053013;28;20052;-68
2023/07/07 03:25:26;;;;;;;4.43;2.30;;;;;;;;;;5053082;28;20384;-69
2023/07/07 03:27:52;;;;;;;7.88;2.42;;;;;;;;;;5052730;28;20040;-68
2023/07/07 03:30:17;;;;;;;5.32;2.88;;;;;;;;;;5052833;28;20484;-68
2023/07/07 03:32:43;;;;;;;5.38;2.40;;;;;;;;;;5053538;28;20037;-68
2023/07/07 03:35:08;;;;;;;5.45;2.50;;;;;;;;;;5054027;28;20114;-69
2023/07/07 03:37:33;;;;;;;5.28;2.55;;;;;;;;;;5051301;28;20477;-68
2023/07/07 03:39:59;;;;;;;4.47;2.03;;;;;;;;;;5051195;28;20370;-68
2023/07/07 03:42:24;;;;;;;4.97;2.22;;;;;;;;;;5053940;28;20086;-68
2023/07/07 03:44:50;;;;;;;8.30;2.80;;;;;;;;;;5048589;28;20102;-68
2023/07/07 03:47:15;;;;;;;6.63;2.75;;;;;;;;;;5054052;28;20029;-68
2023/07/07 03:49:40;;;;;;;5.72;2.60;;;;;;;;;;5046156;28;20044;-68
2023/07/07 03:52:06;;;;;;;9.02;2.70;;;;;;;;;;5053626;28;20044;-68
2023/07/07 03:54:31;;;;;;;6.65;2.63;;;;;;;;;;5053392;28;20049;-68
2023/07/07 03:56:57;;;;;;;4.45;2.65;;;;;;;;;;5053598;28;20027;-68
2023/07/07 03:59:23;;;;;;;9.13;2.65;;;;;;;;;;5052977;28;20041;-68
2023/07/07 04:01:49;;;;;;;9.68;2.97;;;;;;;;;;5053639;28;20116;-68
2023/07/07 04:04:14;;;;;;;6.43;3.42;;;;;;;;;;5052759;28;20033;-68
2023/07/07 04:06:39;;;;;;;12.43;3.13;;;;;;;;;;5053260;28;20044;-68
2023/07/07 04:09:05;;;;;;;7.32;2.92;;;;;;;;;;5051098;28;20036;-68
2023/07/07 04:11:31;;;;;;;10.35;3.00;;;;;;;;;;5053440;28;20123;-68
2023/07/07 04:13:56;;;;;;;7.80;2.95;;;;;;;;;;5050829;28;20116;-68
2023/07/07 04:16:24;;;;;;;10.75;3.72;;;;;;;;;;5053308;28;20120;-69
2023/07/07 04:18:51;;;;;;;6.25;2.63;;;;;;;;;;5052166;28;20037;-68
2023/07/07 04:21:20;;;;;;;6.38;3.00;;;;;;;;;;5053157;28;20052;-68
2023/07/07 04:23:47;;;;;;;12.07;3.40;;;;;;;;;;5047746;28;20487;-68
2023/07/07 04:26:13;;;;;;;6.95;2.90;;;;;;;;;;5053360;28;20037;-68
2023/07/07 04:28:39;;;;;;;7.68;3.35;;;;;;;;;;5051541;28;20045;-68
2023/07/07 04:31:06;;;;;;;11.57;2.83;;;;;;;;;;5051575;28;20055;-68
2023/07/07 04:33:32;;;;;;;8.02;2.92;;;;;;;;;;5052489;28;20036;-68
2023/07/07 04:36:01;;;;;;;6.90;2.58;;;;;;;;;;5052959;28;20132;-68
2023/07/07 04:38:33;;;;;;;5.65;2.72;;;;;;;;;;5048309;28;20108;-68
2023/07/07 04:41:06;;;;;;;6.90;2.38;;;;;;;;;;5052932;28;20551;-68
2023/07/07 04:43:32;;;;;;;7.40;2.55;;;;;;;;;;5049185;28;20488;-68
2023/07/07 04:45:58;;;;;;;7.00;3.05;;;;;;;;;;5053070;28;20043;-68
2023/07/07 04:48:24;;;;;;;4.68;2.75;;;;;;;;;;5052802;28;20040;-68
2023/07/07 04:50:49;;;;;;;7.75;3.28;;;;;;;;;;5052974;28;20388;-69
2023/07/07 04:53:14;;;;;;;7.18;2.78;;;;;;;;;;5052709;28;20029;-68
2023/07/07 04:55:43;;;;;;;6.35;2.50;;;;;;;;;;5052337;28;20040;-68
2023/07/07 04:58:08;;;;;;;5.55;2.00;;;;;;;;;;5051311;28;20036;-68
2023/07/07 05:00:33;;;;;;;3.75;2.10;;;;;;;;;;5052192;28;20392;-68
2023/07/07 05:02:59;;;;;;;6.25;2.00;;;;;;;;;;5052546;28;20516;-68
2023/07/07 05:05:24;;;;;;;3.78;1.80;;;;;;;;;;5046612;28;20132;-68
2023/07/07 05:07:50;;;;;;;4.25;1.90;;;;;;;;;;5052226;28;20484;-69
2023/07/07 05:10:15;;;;;;;3.38;1.80;;;;;;;;;;5052689;28;20087;-68
2023/07/07 05:12:41;;;;;;;5.88;1.90;;;;;;;;;;5052300;28;20075;-69
2023/07/07 05:15:06;;;;;;;4.40;1.77;;;;;;;;;;5050079;28;20389;-69
2023/07/07 05:17:31;;;;;;;3.55;1.67;;;;;;;;;;5052739;28;20044;-69
2023/07/07 05:19:57;;;;;;;4.03;1.83;;;;;;;;;;5049802;28;20465;-69
2023/07/07 05:22:22;;;;;;;4.65;1.50;;;;;;;;;;5052420;28;20096;-69
2023/07/07 05:24:47;;;;;;;3.22;1.58;;;;;;;;;;5052216;28;20037;-69
2023/07/07 05:27:13;;;;;;;5.53;1.90;;;;;;;;;;5052632;28;20029;-69
2023/07/07 05:29:39;;;;;;;4.68;1.80;;;;;;;;;;5051885;28;20037;-69
2023/07/07 05:32:05;;;;;;;4.13;1.50;;;;;;;;;;5051312;28;20076;-69
2023/07/07 05:34:30;;;;;;;4.63;1.60;;;;;;;;;;5052309;28;20047;-69
2023/07/07 05:36:55;;;;;;;5.65;2.00;;;;;;;;;;5052334;28;20029;-69
2023/07/07 05:39:21;;;;;;;3.35;1.60;;;;;;;;;;5048586;28;20032;-69
2023/07/07 05:41:46;;;;;;;4.93;1.60;;;;;;;;;;5052808;28;20091;-69
2023/07/07 05:44:11;;;;;;;3.35;1.50;;;;;;;;;;5050884;28;20102;-69
2023/07/07 05:46:37;;;;;;;4.10;1.35;;;;;;;;;;5055011;28;20098;-69
2023/07/07 05:49:02;;;;;;;3.80;1.50;;;;;;;;;;5055613;28;20040;-69
2023/07/07 05:51:28;;;;;;;5.50;1.50;;;;;;;;;;5056273;28;20443;-69
2023/07/07 05:53:53;;;;;;;3.53;1.35;;;;;;;;;;5055757;28;20424;-69
2023/07/07 05:56:20;;;;;;;3.30;1.52;;;;;;;;;;5055963;28;20072;-69
2023/07/07 05:58:46;;;;;;;3.42;1.60;;;;;;;;;;5048540;28;20377;-70
2023/07/07 06:01:13;;;;;;;3.25;1.60;;;;;;;;;;5051111;28;20044;-69
2023/07/07 06:03:39;;;;;;;2.78;1.50;;;;;;;;;;5054658;28;20044;-69
2023/07/07 06:06:04;;;;;;;4.10;1.50;;;;;;;;;;5053408;28;20036;-69
2023/07/07 06:08:30;;;;;;;3.67;1.70;;;;;;;;;;5055019;28;20040;-69
2023/07/07 06:10:55;;;;;;;5.32;1.55;;;;;;;;;;5055341;28;20052;-69
2023/07/07 06:13:23;;;;;;;3.22;1.50;;;;;;;;;;5055051;28;20025;-69
2023/07/07 06:15:52;;;;;;;5.00;1.52;;;;;;;;;;5055576;28;20040;-70
2023/07/07 06:18:18;;;;;;;3.35;1.50;;;;;;;;;;5036849;28;20427;-69
2023/07/07 06:20:54;;;;;;;4.30;1.67;;;;;;;;;;5055261;28;20040;-69
2023/07/07 06:23:20;;;;;;;3.22;1.60;;;;;;;;;;5054885;28;20095;-69
2023/07/07 06:25:47;;;;;;;5.45;1.55;;;;;;;;;;5055269;28;20431;-69
2023/07/07 06:28:13;;;;;;;3.40;1.50;;;;;;;;;;5052396;28;20033;-70
2023/07/07 06:30:38;;;;;;;2.55;1.20;;;;;;;;;;5052083;28;20037;-70
2023/07/07 06:33:04;;;;;;;4.68;1.60;;;;;;;;;;5054014;28;20476;-70
2023/07/07 06:35:29;;;;;;;3.38;1.50;;;;;;;;;;5052676;28;20064;-70
2023/07/07 06:37:55;;;;;;;4.70;1.80;;;;;;;;;;5055161;28;20064;-70
2023/07/07 06:40:20;;;;;;;5.65;1.80;;;;;;;;;;5055153;28;20021;-70
2023/07/07 06:42:46;;;;;;;5.88;1.90;;;;;;;;;;5055175;28;20535;-69
2023/07/07 06:45:11;;;;;;;3.85;1.60;;;;;;;;;;5055073;28;20029;-70
2023/07/07 06:47:37;;;;;;;4.15;1.40;;;;;;;;;;5055214;28;20055;-70
2023/07/07 06:50:02;;;;;;;4.55;1.80;;;;;;;;;;5053396;28;20400;-70
2023/07/07 06:52:28;;;;;;;5.72;2.13;;;;;;;;;;5054763;28;20048;-70
2023/07/07 06:54:54;;;;;;;5.03;1.70;;;;;;;;;;5054778;28;20029;-70
2023/07/07 06:57:20;;;;;;;8.02;2.13;;;;;;;;;;5053743;28;20033;-70
2023/07/07 06:59:46;;;;;;;5.53;2.17;;;;;;;;;;5054742;28;20057;-70
2023/07/07 07:02:12;;;;;;;5.20;2.42;;;;;;;;;;5053850;28;20025;-70
2023/07/07 07:04:38;;;;;;;5.22;2.40;;;;;;;;;;5053574;28;20028;-70
2023/07/07 07:07:04;;;;;;;9.07;2.50;;;;;;;;;;5054084;28;20079;-70
2023/07/07 07:09:29;;;;;;;5.90;2.60;;;;;;;;;;5053421;28;20032;-70
2023/07/07 07:11:54;;;;;;;5.43;2.50;;;;;;;;;;5054675;28;20040;-70
2023/07/07 07:14:20;;;;;;;5.72;2.58;;;;;;;;;;5053759;28;20113;-70
2023/07/07 07:16:45;;;;;;;8.05;2.90;;;;;;;;;;5053064;28;20060;-70
2023/07/07 07:19:11;;;;;;;8.27;3.28;;;;;;;;;;5053010;28;20154;-70
2023/07/07 07:21:36;;;;;;;6.53;3.03;;;;;;;;;;5054525;28;20465;-70
2023/07/07 07:24:01;;;;;;;6.95;3.08;;;;;;;;;;5053988;28;20508;-70
2023/07/07 07:26:27;;;;;;;6.38;2.67;;;;;;;;;;5054816;28;20029;-70
2023/07/07 07:28:52;;;;;;;5.95;3.00;;;;;;;;;;5046480;28;20056;-70
2023/07/07 07:31:18;;;;;;;6.10;2.70;;;;;;;;;;5051670;28;20025;-70
2023/07/07 07:33:43;;;;;;;6.22;2.90;;;;;;;;;;5040917;28;20041;-70
2023/07/07 07:36:08;;;;;;;6.68;2.83;;;;;;;;;;4994918;28;20058;-69
2023/07/07 07:38:34;;;;;;;5.55;2.58;;;;;;;;;;4994643;28;20031;-69
2023/07/07 07:41:00;;;;;;;5.57;2.33;;;;;;;;;;4994871;28;20121;-69
2023/07/07 07:43:25;;;;;;;5.32;2.50;;;;;;;;;;4994296;28;20043;-69
2023/07/07 07:45:50;;;;;;;6.47;2.60;;;;;;;;;;4994294;28;20034;-70
2023/07/07 07:48:16;;;;;;;5.88;2.40;;;;;;;;;;4994570;28;20565;-70
2023/07/07 07:50:41;;;;;;;4.18;2.08;;;;;;;;;;4994808;28;20057;-70
2023/07/07 07:53:07;;;;;;;5.72;2.83;;;;;;;;;;4994057;28;20470;-70
2023/07/07 07:55:32;;;;;;;8.48;2.50;;;;;;;;;;4994441;28;20042;-70
2023/07/07 07:57:57;;;;;;;4.20;2.38;;;;;;;;;;4994461;28;20034;-70
2023/07/07 08:00:23;;;;;;;5.57;2.40;;;;;;;;;;4994169;28;20396;-69
2023/07/07 08:02:48;;;;;;;5.70;2.20;;;;;;;;;;4988999;28;20389;-70
2023/07/07 08:05:14;;;;;;;5.68;2.20;;;;;;;;;;4994297;28;20093;-70
2023/07/07 08:07:39;;;;;;;4.53;1.92;;;;;;;;;;4994049;28;20037;-71
2023/07/07 08:10:05;;;;;;;5.93;2.20;;;;;;;;;;4991548;28;20475;-70
2023/07/07 08:12:31;;;;;;;5.40;1.85;;;;;;;;;;4995556;28;20042;-70
2023/07/07 08:14:56;;;;;;;4.65;2.03;;;;;;;;;;4994190;28;20081;-70
2023/07/07 08:17:22;;;;;;;4.45;2.00;;;;;;;;;;4993801;28;20038;-70
2023/07/07 08:19:47;;;;;;;6.05;1.90;;;;;;;;;;4993880;28;20053;-70
2023/07/07 08:22:14;;;;;;;3.28;1.88;;;;;;;;;;4993324;28;20030;-70
2023/07/07 08:24:43;;;;;;;4.15;1.83;;;;;;;;;;4990835;28;20130;-71
2023/07/07 08:27:09;;;;;;;3.58;1.77;;;;;;;;;;4991923;28;20399;-71
2023/07/07 08:29:35;;;;;;;7.35;2.10;;;;;;;;;;4973075;28;20038;-71
2023/07/07 08:32:01;;;;;;;6.50;2.00;;;;;;;;;;4989219;28;20038;-71
2023/07/07 08:34:26;;;;;;;4.00;1.83;;;;;;;;;;4988480;28;20046;-70
2023/07/07 08:36:59;;;;;;;4.40;1.80;;;;;;;;;;4990631;28;20096;-71
2023/07/07 08:39:25;;;;;;;2.65;1.40;;;;;;;;;;4990126;28;20034;-70
2023/07/07 08:41:53;;;;;;;3.25;1.65;;;;;;;;;;4989927;28;20490;-70
2023/07/07 08:44:21;;;;;;;3.28;1.45;;;;;;;;;;4990035;28;20038;-70
2023/07/07 08:47:04;;;;;;;3.03;1.38;;;;;;;;;;4989819;28;20463;-70
2023/07/07 08:49:36;;;;;;;4.10;1.30;;;;;;;;;;4990136;28;20031;-70
2023/07/07 08:52:07;;;;;;;;;;;;;;;;;;4989184;28;20387;-71
2023/07/07 08:54:42;;;;;;;7.33;1.80;;;;;;;;;;4990000;28;19932;-70
2023/07/07 08:57:12;;;;;;;3.28;1.42;;;;;;;;;;4986316;28;20019;-71
2023/07/07 09:00:01;;;;;;;2.85;1.25;;;;;;;;;;4988476;28;20148;-70
2023/07/07 09:02:42;;;;;;;4.60;1.35;;;;;;;;;;4988794;28;20113;-68
2023/07/07 09:05:13;;;;;;;4.47;1.42;;;;;;;;;;4980830;28;20046;-70
2023/07/07 09:07:47;;;;;;;2.20;1.20;;;;;;;;;;4990059;28;20040;-70
2023/07/07 09:10:30;;;;;;;5.65;1.60;;;;;;;;;;4989902;28;20070;-70
2023/07/07 09:13:37;;;;;;;3.00;1.25;;;;;;;;;;4984302;28;20038;-71
2023/07/07 09:16:14;;;;;;;2.80;1.30;;;;;;;;;;4987151;28;20511;-70
2023/07/07 09:19:10;;;;;;;4.55;1.48;;;;;;;;;;4988450;28;20125;-70
2023/07/07 09:21:49;;;;;;;5.15;1.40;;;;;;;;;;4992244;28;20061;-70
2023/07/07 09:24:28;;;;;;;3.35;1.30;;;;;;;;;;4993678;28;20014;-70
2023/07/07 09:26:58;;;;;;;2.22;1.20;;;;;;;;;;4993712;28;20039;-69
2023/07/07 09:29:29;;;;;;;3.40;1.48;;;;;;;;;;4980207;28;20038;-70
2023/07/07 09:31:55;;;;;;;2.03;1.00;;;;;;;;;;4992624;28;20044;-70
2023/07/07 09:34:22;;;;;;;3.00;1.30;;;;;;;;;;4992537;28;20113;-70
2023/07/07 09:37:24;;;;;;;3.25;1.45;;;;;;;;;;4992191;28;20030;-69
2023/07/07 09:40:28;;;;;;;3.65;1.42;;;;;;;;;;4992932;28;20475;-69
2023/07/07 09:43:01;;;;;;;4.20;1.30;;;;;;;;;;4989588;28;20517;-70
2023/07/07 09:46:09;;;;;;;3.75;1.50;;;;;;;;;;4993177;28;20117;-69
2023/07/07 09:48:54;;;;;;;3.80;1.33;;;;;;;;;;4996571;28;20050;-69
2023/07/07 09:51:25;;;;;;;3.88;1.95;;;;;;;;;;4990379;28;20069;-70
2023/07/07 09:53:50;;;;;;;6.40;2.17;;;;;;;;;;4991986;28;20046;-69
2023/07/07 09:56:22;;;;;;;6.53;1.80;;;;;;;;;;4992949;28;20049;-70
2023/07/07 09:59:18;;;;;;;6.95;1.70;;;;;;;;;;4991717;28;20046;-69
2023/07/07 10:01:47;;;;;;;6.32;1.70;;;;;;;;;;4982401;28;20074;-70
2023/07/07 10:04:15;;;;;;;3.75;1.70;;;;;;;;;;4991312;28;20121;-70
2023/07/07 10:07:02;;;;;;;6.47;1.50;;;;;;;;;;4979271;28;20028;-70
2023/07/07 10:09:28;;;;;;;4.43;1.80;;;;;;;;;;4988933;28;20148;-68
2023/07/07 10:11:55;;;;;;;3.70;1.70;;;;;;;;;;4991421;28;20030;-68
2023/07/07 10:14:20;;;;;;;4.88;1.63;;;;;;;;;;4989646;28;20034;-68
2023/07/07 10:17:08;;;;;;;4.82;2.00;;;;;;;;;;4992803;28;20044;-69
2023/07/07 10:19:40;;;;;;;5.05;1.73;;;;;;;;;;4991803;28;20263;-69
2023/07/07 10:22:06;;;;;;;4.75;1.50;;;;;;;;;;4991347;28;20073;-68
2023/07/07 10:24:32;;;;;;;3.00;1.63;;;;;;;;;;4991048;28;20061;-68
2023/07/07 10:26:58;;;;;;;3.78;1.90;;;;;;;;;;4992471;28;20100;-68
2023/07/07 10:29:28;;;;;;;3.63;1.70;;;;;;;;;;4994488;28;20065;-68
2023/07/07 10:31:53;;;;;;;6.22;1.80;;;;;;;;;;4991133;28;20042;-68
2023/07/07 10:34:36;;;;;;;4.90;2.08;;;;;;;;;;4993793;28;20489;-68
2023/07/07 10:37:01;;;;;;;5.95;1.60;;;;;;;;;;4992326;28;20042;-68
2023/07/07 10:39:30;;;;;;;4.10;1.92;;;;;;;;;;4991720;28;20034;-70
2023/07/07 10:41:56;;;;;;;4.35;1.80;;;;;;;;;;4992859;28;20181;-70
2023/07/07 10:44:26;;;;;;;5.53;1.90;;;;;;;;;;4991987;28;20518;-69
2023/07/07 10:46:51;;;;;;;4.55;1.70;;;;;;;;;;4991071;28;20034;-69
2023/07/07 10:49:18;;;;;;;3.55;1.70;;;;;;;;;;4991980;28;20043;-70
2023/07/07 10:51:56;;;;;;;2.83;1.42;;;;;;;;;;4991150;28;20045;-69
2023/07/07 10:54:30;;;;;;;4.88;1.70;;;;;;;;;;4990329;28;20030;-69
2023/07/07 10:57:31;;;;;;;3.67;1.60;;;;;;;;;;4990455;28;20124;-69
2023/07/07 10:59:59;;;;;;;3.83;1.80;;;;;;;;;;4990210;28;20053;-69
2023/07/07 11:02:53;;;;;;;4.28;1.85;;;;;;;;;;4990755;28;20045;-69
2023/07/07 11:05:46;;;;;;;3.83;1.60;;;;;;;;;;4981512;28;20467;-69
2023/07/07 11:08:39;;;;;;;6.28;1.50;;;;;;;;;;4983686;28;20164;-70
2023/07/07 11:11:07;;;;;;;;;;;;;;;;;;4991081;28;20056;-69
2023/07/07 11:13:50;;;;;;;3.22;1.70;;;;;;;;;;4991961;28;19984;-69
2023/07/07 11:16:22;;;;;;;3.25;1.60;;;;;;;;;;4991934;28;20038;-69
2023/07/07 11:18:55;;;;;;;4.07;1.75;;;;;;;;;;4991946;28;20541;-69
2023/07/07 11:21:52;;;;;;;5.93;1.52;;;;;;;;;;4990926;28;20030;-69
2023/07/07 11:24:21;;;;;;;3.75;1.73;;;;;;;;;;4984077;28;20116;-69
2023/07/07 11:27:14;;;;;;;4.45;1.70;;;;;;;;;;4991391;28;20125;-69
2023/07/07 11:29:48;;;;;;;3.40;1.52;;;;;;;;;;4977623;28;20061;-69
2023/07/07 11:32:34;;;;;;;3.13;1.52;;;;;;;;;;4986265;28;20133;-69
2023/07/07 11:35:21;;;;;;;4.57;1.60;;;;;;;;;;4991940;28;20548;-69
2023/07/07 11:37:59;;;;;;;4.70;1.80;;;;;;;;;;4994719;28;20067;-69
2023/07/07 11:40:24;;;;;;;4.90;1.70;;;;;;;;;;4993472;28;20065;-69
2023/07/07 11:43:04;;;;;;;3.38;1.70;;;;;;;;;;4993770;28;20065;-69
2023/07/07 11:45:32;;;;;;;3.33;1.55;;;;;;;;;;4992583;28;20035;-69
2023/07/07 11:48:09;;;;;;;3.08;1.42;;;;;;;;;;4991820;28;20042;-70
2023/07/07 11:51:04;;;;;;;2.95;1.27;;;;;;;;;;4991537;28;20070;-69
2023/07/07 11:53:58;;;;;;;3.88;1.52;;;;;;;;;;4977139;28;20462;-69
2023/07/07 11:56:46;;;;;;;3.08;1.52;;;;;;;;;;4986391;28;20042;-69
2023/07/07 11:59:30;;;;;;;3.30;1.63;;;;;;;;;;5002418;28;20054;-69
2023/07/07 12:01:55;;;;;;;;;;;;;;;;;;4985225;28;20085;-69
2023/07/07 12:04:31;;;;;;;3.42;1.48;;;;;;;;;;4983692;28;19917;-69
2023/07/07 12:07:03;;;;;;;8.35;1.85;;;;;;;;;;4972082;28;20069;-69
2023/07/07 12:10:01;;;;;;;3.80;1.65;;;;;;;;;;4992143;28;20055;-69
2023/07/07 12:12:38;;;;;;;5.20;1.55;;;;;;;;;;4990934;28;20042;-69
2023/07/07 12:15:04;;;;;;;4.50;1.85;;;;;;;;;;4983335;28;20030;-69
2023/07/07 12:17:36;;;;;;;5.70;1.50;;;;;;;;;;4992462;28;20394;-68
2023/07/07 12:20:35;;;;;;;4.90;1.77;;;;;;;;;;4986332;28;20034;-69
2023/07/07 12:23:01;;;;;;;3.20;1.23;;;;;;;;;;4984694;28;20380;-69
2023/07/07 12:25:29;;;;;;;3.67;1.90;;;;;;;;;;4989898;28;20034;-69
2023/07/07 12:27:55;;;;;;;3.50;1.50;;;;;;;;;;4987161;28;20371;-68
2023/07/07 12:30:28;;;;;;;3.22;1.60;;;;;;;;;;4992155;28;20076;-69
2023/07/07 12:32:54;;;;;;;3.47;1.80;;;;;;;;;;4992713;28;20046;-69
2023/07/07 12:35:52;;;;;;;4.07;1.67;;;;;;;;;;4991062;28;20037;-69
2023/07/07 12:38:30;;;;;;;4.47;1.80;;;;;;;;;;4986973;28;20038;-69
2023/07/07 12:41:12;;;;;;;3.47;1.70;;;;;;;;;;4991340;28;20823;-69
2023/07/07 12:43:40;;;;;;;3.47;1.73;;;;;;;;;;4989877;28;20105;-69
2023/07/07 12:46:35;;;;;;;6.43;1.80;;;;;;;;;;4990086;28;20034;-69
2023/07/07 12:49:17;;;;;;;3.33;1.50;;;;;;;;;;4988140;28;20122;-69
2023/07/07 12:51:43;;;;;;;4.93;1.52;;;;;;;;;;4987431;28;20046;-69
2023/07/07 12:54:11;;;;;;;5.80;1.50;;;;;;;;;;4989680;28;20054;-69
2023/07/07 12:57:00;;;;;;;5.20;1.75;;;;;;;;;;4990683;28;20125;-70
2023/07/07 12:59:39;;;;;;;3.60;1.58;;;;;;;;;;4993386;28;20044;-69
2023/07/07 13:02:18;;;;;;;4.25;1.95;;;;;;;;;;4988312;28;20062;-69
2023/07/07 13:04:57;;;;;;;4.75;1.80;;;;;;;;;;4993885;28;20185;-69
2023/07/07 13:07:30;;;;;;;3.92;1.80;;;;;;;;;;4996142;28;20042;-69
2023/07/07 13:09:55;;;;;;;3.63;1.70;;;;;;;;;;4995000;28;20034;-69
2023/07/07 13:12:42;;;;;;;8.05;2.08;;;;;;;;;;4995694;28;20177;-69
2023/07/07 13:15:26;;;;;;;6.03;1.60;;;;;;;;;;4992356;28;20711;-69
2023/07/07 13:17:54;;;;;;;3.45;1.50;;;;;;;;;;4994198;28;20047;-69
2023/07/07 13:20:20;;;;;;;3.70;1.67;;;;;;;;;;4994849;28;20494;-69
2023/07/07 13:22:50;;;;;;;3.10;1.45;;;;;;;;;;4990810;28;20034;-69
2023/07/07 13:25:21;;;;;;;4.60;2.00;;;;;;;;;;4993924;28;20034;-69
2023/07/07 13:27:47;;;;;;;3.53;1.48;;;;;;;;;;4993808;28;20045;-69
2023/07/07 13:30:20;;;;;;;3.05;1.80;;;;;;;;;;4994977;28;20042;-69
2023/07/07 13:32:45;;;;;;;4.53;1.35;;;;;;;;;;4994881;28;20042;-69
2023/07/07 13:35:11;;;;;;;2.88;1.48;;;;;;;;;;4985376;28;20173;-69
2023/07/07 13:37:36;;;;;;;3.92;1.77;;;;;;;;;;4995168;28;20081;-69
2023/07/07 13:40:03;;;;;;;6.85;1.65;;;;;;;;;;4986471;28;20041;-69
2023/07/07 13:42:31;;;;;;;3.20;1.67;;;;;;;;;;4993736;28;20045;-69
2023/07/07 13:45:07;;;;;;;4.97;1.60;;;;;;;;;;4987136;28;20042;-70
2023/07/07 13:47:39;;;;;;;2.85;1.40;;;;;;;;;;4991780;28;20117;-69
2023/07/07 13:50:07;;;;;;;4.22;1.90;;;;;;;;;;4994665;28;20030;-69
2023/07/07 13:52:34;;;;;;;3.47;1.65;;;;;;;;;;4992345;28;20046;-69
2023/07/07 13:55:00;;;;;;;4.00;1.63;;;;;;;;;;4994336;28;20382;-69
2023/07/07 13:57:30;;;;;;;6.22;2.10;;;;;;;;;;4995004;28;20038;-69
2023/07/07 13:59:56;;;;;;;4.80;1.77;;;;;;;;;;4991468;28;20042;-69
2023/07/07 14:02:22;;;;;;;3.22;1.50;;;;;;;;;;4993390;28;20042;-69
2023/07/07 14:04:56;;;;;;;2.78;1.48;;;;;;;;;;4994831;28;20038;-69
2023/07/07 14:07:22;;;;;;;5.25;1.70;;;;;;;;;;4991999;28;20034;-69
2023/07/07 14:09:48;;;;;;;2.67;1.42;;;;;;;;;;4994309;28;20374;-69
2023/07/07 14:12:20;;;;;;;3.83;1.40;;;;;;;;;;4993574;28;20093;-69
2023/07/07 14:14:49;;;;;;;8.23;1.48;;;;;;;;;;4993851;28;20061;-68
2023/07/07 14:17:28;;;;;;;2.72;1.38;;;;;;;;;;4993327;28;20430;-69
2023/07/07 14:19:57;;;;;;;3.63;1.52;;;;;;;;;;4994745;28;20046;-69
2023/07/07 14:22:23;;;;;;;4.57;1.65;;;;;;;;;;4993938;28;20042;-69
2023/07/07 14:24:50;;;;;;;2.58;1.30;;;;;;;;;;4992415;28;20133;-69
2023/07/07 14:27:16;;;;;;;4.70;1.60;;;;;;;;;;4992400;28;20399;-69
2023/07/07 14:29:43;;;;;;;3.00;1.50;;;;;;;;;;4994058;28;20066;-69
2023/07/07 14:32:22;;;;;;;3.75;1.40;;;;;;;;;;4993140;28;20038;-70
2023/07/07 14:34:50;;;;;;;4.30;1.55;;;;;;;;;;4991282;28;20133;-69
2023/07/07 14:37:22;;;;;;;4.78;1.60;;;;;;;;;;4993186;28;20038;-69
2023/07/07 14:39:50;;;;;;;3.70;1.50;;;;;;;;;;4993117;28;20048;-68
2023/07/07 14:42:22;;;;;;;3.75;1.60;;;;;;;;;;4993888;28;20026;-69
2023/07/07 14:44:50;;;;;;;4.35;1.63;;;;;;;;;;4990291;28;20030;-69
2023/07/07 14:47:35;;;;;;;3.10;1.58;;;;;;;;;;4991936;28;20502;-69
2023/07/07 14:50:04;;;;;;;5.03;1.73;;;;;;;;;;4987594;28;20069;-69
2023/07/07 14:52:32;;;;;;;4.45;1.67;;;;;;;;;;4988581;28;20101;-69
2023/07/07 14:55:00;;;;;;;3.50;1.50;;;;;;;;;;4991868;28;20041;-69
2023/07/07 14:57:25;;;;;;;2.90;1.52;;;;;;;;;;4990797;28;20045;-69
2023/07/07 14:59:51;;;;;;;3.20;1.73;;;;;;;;;;4986804;28;20050;-69